Time;durP1;ratioP1;P1;durP2;ratioP2;P2;SDS_P1;SDS_P2;PMS_P1;PMS_P2;Temp;Humidity;BMP_temperature;BMP_pressure;BME280_temperature;BME280_humidity;BME280_pressure;Samples;Min_cycle;Max_cycle;Signal;HPM_P1;HPM_P2
2022/07/30 00:01:07;;;;;;;2.40;2.10;;;16.90;99.90;;;;;;5076371;28;20613;-88
2022/07/30 00:03:35;;;;;;;2.57;2.20;;;16.90;99.90;;;;;;5088680;28;21076;-89
2022/07/30 00:06:02;;;;;;;2.57;2.37;;;16.80;99.90;;;;;;5087198;28;21508;-88
2022/07/30 00:08:30;;;;;;;2.10;1.90;;;16.80;99.90;;;;;;5088648;28;21285;-89
2022/07/30 00:10:58;;;;;;;3.00;2.80;;;16.90;99.90;;;;;;5071159;28;20655;-88
2022/07/30 00:13:28;;;;;;;2.17;2.07;;;16.80;99.90;;;;;;5068307;28;20990;-89
2022/07/30 00:15:58;;;;;;;3.13;2.87;;;16.80;99.90;;;;;;5070126;28;20617;-89
2022/07/30 00:18:25;;;;;;;5.43;2.83;;;16.80;99.90;;;;;;5072773;28;20668;-88
2022/07/30 00:20:53;;;;;;;2.80;2.30;;;16.80;99.90;;;;;;5067745;28;21083;-88
2022/07/30 00:23:20;;;;;;;2.40;2.20;;;16.90;99.90;;;;;;5086561;28;20678;-89
2022/07/30 00:25:48;;;;;;;2.83;2.63;;;17.00;99.90;;;;;;5083274;28;20703;-89
2022/07/30 00:28:15;;;;;;;2.80;2.60;;;17.00;99.90;;;;;;5081894;28;20621;-87
2022/07/30 00:30:42;;;;;;;2.03;1.83;;;17.00;99.90;;;;;;5073454;28;20727;-88
2022/07/30 00:33:09;;;;;;;2.93;2.63;;;17.00;99.90;;;;;;5073235;28;21016;-88
2022/07/30 00:35:38;;;;;;;2.50;2.30;;;17.00;99.90;;;;;;5082658;28;20624;-88
2022/07/30 00:38:07;;;;;;;2.63;2.43;;;17.00;99.90;;;;;;5068469;28;20766;-89
2022/07/30 00:40:35;;;;;;;2.40;2.20;;;16.90;99.90;;;;;;5076518;28;20618;-88
2022/07/30 00:43:03;;;;;;;2.93;2.73;;;16.80;99.90;;;;;;5088497;28;21216;-88
2022/07/30 00:45:31;;;;;;;1.77;1.67;;;16.90;99.90;;;;;;5086940;28;21105;-88
2022/07/30 00:48:00;;;;;;;2.33;2.13;;;16.90;99.90;;;;;;5084873;28;20724;-89
2022/07/30 00:50:28;;;;;;;2.80;2.30;;;17.00;99.90;;;;;;5071477;28;20616;-88
2022/07/30 00:52:57;;;;;;;3.43;2.60;;;17.00;99.90;;;;;;5083437;28;20612;-90
2022/07/30 00:55:26;;;;;;;2.10;2.00;;;17.00;99.90;;;;;;5082557;28;20637;-88
2022/07/30 00:57:53;;;;;;;2.60;2.40;;;17.20;99.90;;;;;;5070091;28;21320;-89
2022/07/30 01:00:21;;;;;;;2.20;2.10;;;17.10;99.90;;;;;;5075935;28;20617;-90
2022/07/30 01:02:48;;;;;;;3.40;2.43;;;17.20;99.90;;;;;;5084738;28;20656;-89
2022/07/30 01:05:15;;;;;;;2.23;2.03;;;17.20;99.90;;;;;;5074298;28;20626;-89
2022/07/30 01:07:42;;;;;;;2.97;2.33;;;17.10;99.90;;;;;;5068814;28;21504;-89
2022/07/30 01:10:11;;;;;;;3.00;2.70;;;17.00;99.90;;;;;;5070558;28;21500;-87
2022/07/30 01:12:40;;;;;;;2.90;2.70;;;17.10;99.90;;;;;;5073943;28;21566;-89
2022/07/30 01:15:09;;;;;;;2.30;2.07;;;17.10;99.90;;;;;;5068533;28;20629;-87
2022/07/30 01:17:37;;;;;;;2.43;2.23;;;17.10;99.90;;;;;;5070875;28;21493;-88
2022/07/30 01:20:07;;;;;;;2.53;2.30;;;17.00;99.90;;;;;;5087299;28;20639;-88
2022/07/30 01:22:47;;;;;;;2.73;2.53;;;16.90;99.90;;;;;;5078644;28;20635;-87
2022/07/30 01:25:22;;;;;;;2.60;2.23;;;16.90;99.90;;;;;;5073267;28;20632;-88
2022/07/30 01:27:54;;;;;;;2.77;2.57;;;16.80;99.90;;;;;;5074500;28;20692;-88
2022/07/30 01:30:25;;;;;;;2.53;2.33;;;16.80;99.90;;;;;;5072964;28;20621;-88
2022/07/30 01:32:56;;;;;;;3.00;2.80;;;16.80;99.90;;;;;;5070060;28;20725;-89
2022/07/30 01:35:26;;;;;;;4.07;2.97;;;16.80;99.90;;;;;;5071218;28;20624;-87
2022/07/30 01:37:56;;;;;;;2.70;2.50;;;16.70;99.90;;;;;;5069400;28;20621;-88
2022/07/30 01:40:26;;;;;;;2.60;2.40;;;16.70;99.90;;;;;;5083027;28;21325;-88
2022/07/30 01:42:59;;;;;;;2.60;2.40;;;16.70;99.90;;;;;;5086495;28;20724;-88
2022/07/30 01:45:30;;;;;;;2.10;1.90;;;16.70;99.90;;;;;;5082270;28;20629;-90
2022/07/30 01:48:00;;;;;;;2.83;2.63;;;16.70;99.90;;;;;;5087176;28;20720;-89
2022/07/30 01:50:30;;;;;;;2.67;2.47;;;16.60;99.90;;;;;;5079158;28;20747;-89
2022/07/30 01:52:59;;;;;;;2.70;2.50;;;16.60;99.90;;;;;;5081857;28;20624;-88
2022/07/30 01:55:30;;;;;;;2.40;1.67;;;16.70;99.90;;;;;;5071508;28;20730;-89
2022/07/30 01:58:00;;;;;;;2.63;2.43;;;16.70;99.90;;;;;;5068869;28;20649;-88
2022/07/30 02:00:30;;;;;;;3.00;2.73;;;16.60;99.90;;;;;;5069051;28;20632;-88
2022/07/30 02:02:57;;;;;;;3.37;2.40;;;16.60;99.90;;;;;;5076875;28;20713;-87
2022/07/30 02:05:24;;;;;;;2.60;2.40;;;16.60;99.90;;;;;;5082316;28;20724;-90
2022/07/30 02:07:57;;;;;;;4.83;2.57;;;16.60;99.90;;;;;;5089383;28;20681;-87
2022/07/30 02:10:32;;;;;;;3.20;3.00;;;16.60;99.90;;;;;;5073042;28;20648;-88
2022/07/30 02:13:02;;;;;;;2.97;2.77;;;16.60;99.90;;;;;;5084814;28;20627;-88
2022/07/30 02:15:36;;;;;;;2.90;2.70;;;16.60;99.90;;;;;;5083781;28;20747;-89
2022/07/30 02:18:07;;;;;;;2.87;2.67;;;16.60;99.90;;;;;;5079263;28;21090;-88
2022/07/30 02:20:35;;;;;;;3.10;2.90;;;16.50;99.90;;;;;;5084448;28;20628;-89
2022/07/30 02:23:09;;;;;;;3.63;2.47;;;16.50;99.90;;;;;;5089819;28;20607;-88
2022/07/30 02:25:42;;;;;;;2.93;2.73;;;16.50;99.90;;;;;;5081234;28;20613;-88
2022/07/30 02:28:12;;;;;;;3.10;2.90;;;16.40;99.90;;;;;;5082432;28;20617;-88
2022/07/30 02:30:44;;;;;;;2.50;2.30;;;16.30;99.90;;;;;;5086933;28;21130;-89
2022/07/30 02:33:14;;;;;;;4.23;3.10;;;16.20;99.90;;;;;;5072078;28;20612;-87
2022/07/30 02:35:41;;;;;;;2.17;2.00;;;16.20;99.90;;;;;;5090004;28;20656;-88
2022/07/30 02:38:09;;;;;;;5.37;2.40;;;16.10;99.90;;;;;;5080733;28;20729;-87
2022/07/30 02:40:41;;;;;;;3.20;3.00;;;16.00;99.90;;;;;;5081721;28;20645;-87
2022/07/30 02:43:14;;;;;;;2.80;2.43;;;16.00;99.90;;;;;;5089587;28;20648;-87
2022/07/30 02:45:42;;;;;;;2.50;2.33;;;16.00;99.90;;;;;;5077004;28;20632;-88
2022/07/30 02:48:11;;;;;;;3.40;3.10;;;16.00;99.90;;;;;;5089258;28;21247;-88
2022/07/30 02:50:40;;;;;;;2.83;2.63;;;15.90;99.90;;;;;;5076355;28;20731;-88
2022/07/30 02:53:10;;;;;;;2.57;2.37;;;16.00;99.90;;;;;;5086605;28;20628;-87
2022/07/30 02:55:40;;;;;;;3.20;2.90;;;16.00;99.90;;;;;;5070716;28;20665;-88
2022/07/30 02:58:08;;;;;;;2.90;2.27;;;16.00;99.90;;;;;;5070626;28;20703;-86
2022/07/30 03:00:38;;;;;;;2.43;2.23;;;15.90;99.90;;;;;;5069806;28;20632;-86
2022/07/30 03:03:07;;;;;;;2.53;2.37;;;15.90;99.90;;;;;;5083128;28;20747;-87
2022/07/30 03:05:36;;;;;;;2.47;2.27;;;15.80;99.90;;;;;;5075640;28;20975;-87
2022/07/30 03:08:07;;;;;;;3.00;2.80;;;15.80;99.90;;;;;;5081004;28;20613;-88
2022/07/30 03:10:35;;;;;;;3.33;3.03;;;16.10;99.90;;;;;;5089449;28;20624;-88
2022/07/30 03:13:06;;;;;;;3.00;2.80;;;15.90;99.90;;;;;;5083835;28;20623;-87
2022/07/30 03:15:36;;;;;;;2.63;2.43;;;15.90;99.90;;;;;;5077796;28;20720;-86
2022/07/30 03:18:06;;;;;;;2.67;2.43;;;15.80;99.90;;;;;;5082940;28;20732;-88
2022/07/30 03:20:35;;;;;;;2.97;2.77;;;15.80;99.90;;;;;;5080211;28;20776;-87
2022/07/30 03:23:04;;;;;;;2.80;2.60;;;15.80;99.90;;;;;;5070137;28;20979;-88
2022/07/30 03:25:32;;;;;;;2.20;2.00;;;15.80;99.90;;;;;;5070655;28;20633;-88
2022/07/30 03:28:02;;;;;;;4.27;2.90;;;15.70;99.90;;;;;;5089190;28;21502;-88
2022/07/30 03:30:29;;;;;;;3.10;2.70;;;15.70;99.90;;;;;;5081045;28;20736;-87
2022/07/30 03:32:57;;;;;;;2.83;2.63;;;15.60;99.90;;;;;;5077458;28;20617;-87
2022/07/30 03:35:26;;;;;;;3.00;2.70;;;15.60;99.90;;;;;;5070101;28;21212;-87
2022/07/30 03:37:54;;;;;;;3.37;3.13;;;15.50;99.90;;;;;;5069347;28;20610;-88
2022/07/30 03:40:22;;;;;;;3.17;2.83;;;15.60;99.90;;;;;;5087551;28;21268;-89
2022/07/30 03:42:50;;;;;;;3.20;2.90;;;15.60;99.90;;;;;;5083864;28;20624;-86
2022/07/30 03:45:19;;;;;;;6.73;3.33;;;15.60;99.90;;;;;;5077465;28;20626;-89
2022/07/30 03:47:47;;;;;;;3.70;2.70;;;15.50;99.90;;;;;;5086688;28;20643;-88
2022/07/30 03:50:15;;;;;;;3.10;2.90;;;15.40;99.90;;;;;;5089321;28;20751;-87
2022/07/30 03:52:43;;;;;;;2.93;2.73;;;15.40;99.90;;;;;;5073928;28;20621;-87
2022/07/30 03:55:12;;;;;;;3.53;3.23;;;15.40;99.90;;;;;;5076741;28;20739;-86
2022/07/30 03:57:39;;;;;;;3.03;2.83;;;15.40;99.90;;;;;;5086828;28;20633;-87
2022/07/30 04:00:12;;;;;;;3.00;2.80;;;15.40;99.90;;;;;;5080512;28;20714;-88
2022/07/30 04:02:42;;;;;;;2.80;2.60;;;15.40;99.90;;;;;;5086234;28;21242;-88
2022/07/30 04:05:09;;;;;;;2.87;2.60;;;15.40;99.90;;;;;;5085176;28;20620;-87
2022/07/30 04:07:36;;;;;;;3.40;3.10;;;15.40;99.90;;;;;;5088469;28;20721;-87
2022/07/30 04:10:06;;;;;;;3.10;2.60;;;15.40;99.90;;;;;;5074052;28;20737;-88
2022/07/30 04:12:33;;;;;;;3.97;3.67;;;15.40;99.90;;;;;;5081860;28;20644;-88
2022/07/30 04:15:00;;;;;;;2.90;2.70;;;15.50;99.90;;;;;;5081225;28;20691;-87
2022/07/30 04:17:33;;;;;;;3.10;2.80;;;15.40;99.90;;;;;;5071749;28;20694;-87
2022/07/30 04:20:05;;;;;;;2.83;2.60;;;15.30;99.90;;;;;;5067994;28;20752;-87
2022/07/30 04:22:34;;;;;;;2.70;2.50;;;15.20;99.90;;;;;;5074866;28;20623;-87
2022/07/30 04:25:02;;;;;;;2.30;2.13;;;15.30;99.90;;;;;;5086325;28;21293;-86
2022/07/30 04:27:31;;;;;;;3.30;3.00;;;15.30;99.90;;;;;;5084244;28;20674;-87
2022/07/30 04:29:59;;;;;;;3.67;3.37;;;15.40;99.90;;;;;;5068803;28;21061;-87
2022/07/30 04:32:26;;;;;;;3.30;2.80;;;15.40;99.90;;;;;;5078512;28;20728;-88
2022/07/30 04:34:55;;;;;;;2.80;2.60;;;15.30;99.90;;;;;;5071765;28;20729;-87
2022/07/30 04:37:23;;;;;;;3.17;2.83;;;15.20;99.90;;;;;;5085990;28;20677;-87
2022/07/30 04:39:53;;;;;;;2.50;2.30;;;15.30;99.90;;;;;;5076849;28;20660;-86
2022/07/30 04:42:20;;;;;;;2.80;2.60;;;15.30;99.90;;;;;;5080421;28;20628;-88
2022/07/30 04:44:48;;;;;;;2.83;2.60;;;15.40;99.90;;;;;;5082886;28;20670;-87
2022/07/30 04:47:15;;;;;;;3.17;2.87;;;15.50;99.90;;;;;;5071759;28;20811;-87
2022/07/30 04:49:43;;;;;;;2.87;2.67;;;15.50;99.90;;;;;;5070434;28;20637;-87
2022/07/30 04:52:12;;;;;;;2.80;2.60;;;15.60;99.90;;;;;;5074980;28;21265;-86
2022/07/30 04:54:42;;;;;;;3.03;2.70;;;15.50;99.90;;;;;;5071796;28;20640;-86
2022/07/30 04:57:11;;;;;;;2.60;2.40;;;15.60;99.90;;;;;;5074500;28;20687;-87
2022/07/30 04:59:40;;;;;;;3.47;3.20;;;15.60;99.90;;;;;;5067811;28;20657;-87
2022/07/30 05:02:10;;;;;;;3.13;2.87;;;15.60;99.90;;;;;;5077475;28;20632;-87
2022/07/30 05:04:40;;;;;;;3.77;3.37;;;15.60;99.90;;;;;;5079910;28;21166;-87
2022/07/30 05:07:08;;;;;;;2.70;2.50;;;15.70;99.90;;;;;;5078877;28;20716;-86
2022/07/30 05:09:36;;;;;;;3.53;3.17;;;15.80;99.90;;;;;;5080823;28;20629;-87
2022/07/30 05:12:03;;;;;;;4.80;3.40;;;15.90;99.90;;;;;;5068330;28;20680;-87
2022/07/30 05:14:33;;;;;;;3.30;3.00;;;16.00;99.90;;;;;;5073256;28;20629;-87
2022/07/30 05:17:00;;;;;;;3.73;3.43;;;16.00;99.90;;;;;;5075615;28;20628;-88
2022/07/30 05:19:30;;;;;;;3.30;3.00;;;16.10;99.90;;;;;;5075093;28;20668;-88
2022/07/30 05:21:57;;;;;;;2.60;2.40;;;16.20;99.90;;;;;;5077603;28;20716;-90
2022/07/30 05:24:24;;;;;;;3.17;2.93;;;16.20;99.90;;;;;;5077619;28;20914;-89
2022/07/30 05:26:51;;;;;;;3.67;2.80;;;16.20;99.90;;;;;;5076289;28;20625;-88
2022/07/30 05:29:18;;;;;;;3.30;3.00;;;16.30;99.90;;;;;;5074699;28;20628;-88
2022/07/30 05:31:45;;;;;;;2.97;2.60;;;16.30;99.90;;;;;;5076465;28;20644;-87
2022/07/30 05:34:12;;;;;;;3.97;3.57;;;16.40;99.90;;;;;;5074629;28;20605;-88
2022/07/30 05:36:41;;;;;;;3.37;3.07;;;16.60;99.90;;;;;;5077682;28;20644;-87
2022/07/30 05:39:09;;;;;;;3.57;3.27;;;16.70;99.90;;;;;;5087975;28;20628;-88
2022/07/30 05:41:36;;;;;;;4.13;3.73;;;16.80;99.90;;;;;;5079466;28;20616;-89
2022/07/30 05:44:03;;;;;;;2.80;2.60;;;16.90;99.90;;;;;;5089000;28;20733;-88
2022/07/30 05:46:31;;;;;;;3.30;3.00;;;17.10;99.90;;;;;;5070282;28;21164;-87
2022/07/30 05:48:58;;;;;;;3.47;3.20;;;17.10;99.90;;;;;;5080912;28;20614;-86
2022/07/30 05:51:25;;;;;;;4.20;3.90;;;17.20;99.90;;;;;;5081848;28;20657;-88
2022/07/30 05:53:54;;;;;;;3.40;3.20;;;17.20;99.90;;;;;;5078740;28;20617;-88
2022/07/30 05:56:20;;;;;;;2.47;2.33;;;17.30;99.90;;;;;;5077433;28;20673;-87
2022/07/30 05:58:47;;;;;;;2.87;2.67;;;17.40;99.90;;;;;;5085151;28;21285;-88
2022/07/30 06:01:14;;;;;;;2.97;2.73;;;17.40;99.90;;;;;;5079806;28;20664;-89
2022/07/30 06:03:41;;;;;;;4.20;3.50;;;17.50;99.90;;;;;;5070955;28;20666;-87
2022/07/30 06:06:08;;;;;;;2.83;2.63;;;17.60;99.90;;;;;;5071126;28;20735;-87
2022/07/30 06:08:35;;;;;;;3.23;3.00;;;17.70;99.90;;;;;;5077039;28;21144;-88
2022/07/30 06:11:04;;;;;;;3.17;2.37;;;17.80;99.90;;;;;;5075011;28;21210;-88
2022/07/30 06:13:30;;;;;;;3.17;2.97;;;17.90;99.90;;;;;;5076834;28;20624;-87
2022/07/30 06:15:57;;;;;;;3.13;2.90;;;18.00;99.90;;;;;;5079639;28;20675;-87
2022/07/30 06:18:24;;;;;;;2.93;2.60;;;18.10;99.90;;;;;;5077464;28;21572;-86
2022/07/30 06:20:53;;;;;;;3.27;3.07;;;18.30;99.50;;;;;;5080250;28;21385;-87
2022/07/30 06:23:20;;;;;;;2.80;2.60;;;18.40;99.90;;;;;;5078836;28;20617;-86
2022/07/30 06:25:47;;;;;;;3.30;3.00;;;18.40;99.90;;;;;;5077108;28;20626;-86
2022/07/30 06:28:15;;;;;;;3.87;3.10;;;18.50;99.20;;;;;;5076830;28;20612;-86
2022/07/30 06:30:44;;;;;;;3.67;3.47;;;18.50;98.50;;;;;;5069428;28;20687;-87
2022/07/30 06:33:11;;;;;;;2.80;2.60;;;18.60;98.00;;;;;;5084342;28;20982;-87
2022/07/30 06:35:38;;;;;;;3.77;3.47;;;18.70;98.70;;;;;;5069071;28;20718;-86
2022/07/30 06:38:05;;;;;;;3.27;2.90;;;18.80;98.00;;;;;;5080481;28;20633;-86
2022/07/30 06:40:32;;;;;;;2.63;2.43;;;18.90;98.10;;;;;;5079467;28;20661;-85
2022/07/30 06:42:59;;;;;;;3.30;3.07;;;19.00;98.40;;;;;;5081602;28;20971;-87
2022/07/30 06:45:27;;;;;;;3.10;2.80;;;19.10;97.30;;;;;;5088528;28;21041;-86
2022/07/30 06:47:57;;;;;;;3.60;3.27;;;19.20;96.50;;;;;;5079009;28;20711;-86
2022/07/30 06:50:24;;;;;;;3.20;2.90;;;19.30;96.30;;;;;;5087569;28;20628;-88
2022/07/30 06:52:51;;;;;;;3.83;3.53;;;19.30;95.60;;;;;;5086677;28;20660;-87
2022/07/30 06:55:18;;;;;;;3.33;3.03;;;19.30;95.30;;;;;;5083580;28;20651;-85
2022/07/30 06:57:45;;;;;;;3.40;3.10;;;19.50;95.30;;;;;;5074517;28;20712;-86
2022/07/30 07:00:12;;;;;;;3.70;3.23;;;19.60;95.40;;;;;;5071919;28;20717;-86
2022/07/30 07:02:41;;;;;;;3.17;2.93;;;19.70;95.00;;;;;;5078520;28;20720;-87
2022/07/30 07:05:08;;;;;;;3.57;3.27;;;19.70;94.80;;;;;;5081667;28;20631;-87
2022/07/30 07:07:47;;;;;;;;;;;;;;;;;;;;;
2022/07/30 07:10:17;;;;;;;4.57;4.27;;;19.80;94.00;;;;;;5080103;28;20626;-87
2022/07/30 07:12:44;;;;;;;3.90;3.50;;;19.90;93.80;;;;;;5077506;28;20614;-88
2022/07/30 07:15:11;;;;;;;3.37;2.93;;;20.00;93.80;;;;;;5079034;28;20716;-87
2022/07/30 07:17:39;;;;;;;3.97;3.57;;;20.10;94.10;;;;;;5085702;28;20652;-87
2022/07/30 07:20:08;;;;;;;4.10;3.70;;;20.20;93.30;;;;;;5085414;28;20672;-87
2022/07/30 07:22:35;;;;;;;4.00;3.60;;;20.30;93.30;;;;;;5090892;28;20681;-87
2022/07/30 07:25:02;;;;;;;3.40;3.10;;;20.40;93.60;;;;;;5072498;28;20616;-88
2022/07/30 07:27:29;;;;;;;3.47;3.17;;;20.50;92.90;;;;;;5069190;28;21278;-87
2022/07/30 07:29:56;;;;;;;6.70;3.43;;;20.70;93.70;;;;;;5085255;28;20656;-87
2022/07/30 07:32:23;;;;;;;3.13;2.90;;;20.70;92.90;;;;;;5082313;28;20647;-87
2022/07/30 07:34:50;;;;;;;4.10;3.10;;;20.80;91.90;;;;;;5074339;28;21380;-87
2022/07/30 07:37:21;;;;;;;3.87;3.50;;;20.90;92.00;;;;;;5072821;28;21015;-87
2022/07/30 07:39:48;;;;;;;3.37;3.10;;;21.00;91.90;;;;;;5079253;28;20653;-87
2022/07/30 07:42:15;;;;;;;3.90;3.50;;;21.00;91.60;;;;;;5079893;28;20720;-89
2022/07/30 07:44:42;;;;;;;2.73;2.50;;;21.00;91.20;;;;;;5075541;28;20612;-88
2022/07/30 07:47:09;;;;;;;2.97;2.77;;;21.10;91.30;;;;;;5076154;28;20649;-87
2022/07/30 07:49:35;;;;;;;3.10;2.90;;;21.20;90.10;;;;;;5078993;28;20708;-87
2022/07/30 07:52:02;;;;;;;2.53;2.33;;;21.30;87.80;;;;;;5075253;28;20626;-88
2022/07/30 07:54:32;;;;;;;2.77;2.60;;;21.30;86.10;;;;;;5077838;28;20731;-86
2022/07/30 07:57:06;;;;;;;2.90;2.70;;;21.30;83.30;;;;;;5076697;28;20699;-88
2022/07/30 07:59:33;;;;;;;3.00;2.80;;;21.40;83.10;;;;;;5076484;28;20748;-88
2022/07/30 08:02:00;;;;;;;3.00;2.80;;;21.50;84.50;;;;;;5076241;28;21211;-87
2022/07/30 08:04:27;;;;;;;2.93;2.73;;;21.50;80.70;;;;;;5076027;28;20640;-88
2022/07/30 08:06:54;;;;;;;3.87;3.23;;;21.70;83.90;;;;;;5077351;28;20755;-87
2022/07/30 08:09:21;;;;;;;2.70;2.50;;;21.70;83.70;;;;;;5074229;28;20618;-87
2022/07/30 08:11:49;;;;;;;4.73;3.00;;;21.80;83.60;;;;;;5072088;28;20625;-89
2022/07/30 08:14:16;;;;;;;3.10;2.90;;;21.80;80.40;;;;;;5071030;28;20614;-87
2022/07/30 08:16:43;;;;;;;3.00;2.70;;;21.70;80.60;;;;;;5079189;28;20708;-87
2022/07/30 08:19:10;;;;;;;2.70;2.50;;;21.80;78.60;;;;;;5071367;28;20610;-85
2022/07/30 08:21:37;;;;;;;2.93;2.40;;;21.90;81.20;;;;;;5080369;28;20675;-86
2022/07/30 08:24:06;;;;;;;2.60;2.40;;;21.90;78.20;;;;;;5080847;28;20683;-85
2022/07/30 08:26:33;;;;;;;2.20;1.97;;;22.10;79.20;;;;;;5069087;28;20633;-85
2022/07/30 08:29:01;;;;;;;2.30;2.20;;;22.10;79.60;;;;;;5073592;28;20727;-86
2022/07/30 08:31:28;;;;;;;3.40;2.93;;;22.00;77.00;;;;;;5068630;28;20686;-87
2022/07/30 08:33:55;;;;;;;2.90;2.70;;;22.20;78.30;;;;;;5068186;28;20653;-87
2022/07/30 08:36:22;;;;;;;3.50;2.60;;;22.40;77.30;;;;;;5066670;28;20602;-86
2022/07/30 08:38:49;;;;;;;3.07;2.80;;;22.60;75.80;;;;;;5080717;28;20657;-85
2022/07/30 08:41:19;;;;;;;3.37;3.07;;;22.50;76.00;;;;;;5080614;28;20706;-88
2022/07/30 08:43:49;;;;;;;3.50;3.20;;;22.60;74.90;;;;;;5084108;28;20652;-85
2022/07/30 08:46:20;;;;;;;2.37;2.23;;;22.60;73.00;;;;;;5080694;28;20656;-85
2022/07/30 08:48:47;;;;;;;4.07;3.60;;;22.80;75.60;;;;;;5084028;28;21166;-86
2022/07/30 08:51:16;;;;;;;2.70;2.50;;;23.10;74.30;;;;;;5085541;28;20625;-85
2022/07/30 08:53:46;;;;;;;2.77;2.57;;;23.10;71.90;;;;;;5087398;28;20627;-88
2022/07/30 08:56:13;;;;;;;2.73;2.53;;;23.10;71.20;;;;;;5086990;28;20628;-86
2022/07/30 08:58:42;;;;;;;3.20;2.90;;;23.10;73.70;;;;;;5086454;28;20616;-87
2022/07/30 09:01:09;;;;;;;7.23;3.37;;;23.40;71.70;;;;;;5077586;28;20763;-87
2022/07/30 09:03:38;;;;;;;3.33;3.13;;;23.40;71.10;;;;;;5087244;28;20731;-87
2022/07/30 09:06:06;;;;;;;2.73;2.33;;;23.10;72.50;;;;;;5078415;28;20625;-86
2022/07/30 09:08:34;;;;;;;2.40;2.20;;;23.30;73.50;;;;;;5083793;28;20674;-87
2022/07/30 09:11:01;;;;;;;2.60;2.40;;;23.00;71.70;;;;;;5081630;28;20624;-87
2022/07/30 09:13:29;;;;;;;3.17;2.87;;;22.80;73.50;;;;;;5084538;28;20648;-86
2022/07/30 09:15:57;;;;;;;2.60;2.40;;;22.90;70.10;;;;;;5089387;28;20634;-87
2022/07/30 09:18:29;;;;;;;2.87;2.67;;;23.10;70.50;;;;;;5077340;28;21315;-87
2022/07/30 09:20:59;;;;;;;3.10;2.90;;;23.30;70.10;;;;;;5069658;28;21319;-87
2022/07/30 09:23:26;;;;;;;2.50;2.33;;;23.20;69.30;;;;;;5080193;28;20690;-87
2022/07/30 09:25:53;;;;;;;4.00;2.57;;;23.40;68.90;;;;;;5079596;28;20630;-86
2022/07/30 09:28:28;;;;;;;2.50;1.90;;;23.50;68.20;;;;;;5081053;28;20652;-86
2022/07/30 09:30:57;;;;;;;2.10;2.00;;;23.80;66.30;;;;;;5089229;28;20867;-88
2022/07/30 09:33:35;;;;;;;2.77;2.67;;;24.00;69.20;;;;;;5083208;28;20666;-87
2022/07/30 09:36:05;;;;;;;3.03;2.83;;;24.10;66.70;;;;;;5085011;28;20613;-88
2022/07/30 09:38:43;;;;;;;2.90;2.70;;;24.30;65.90;;;;;;5080355;28;20628;-86
2022/07/30 09:41:11;;;;;;;3.10;2.47;;;24.20;62.90;;;;;;5077296;28;21377;-86
2022/07/30 09:43:43;;;;;;;2.93;2.73;;;24.00;63.90;;;;;;5083706;28;20625;-85
2022/07/30 09:46:11;;;;;;;2.40;2.30;;;24.00;67.90;;;;;;5070439;28;20664;-87
2022/07/30 09:48:38;;;;;;;2.43;2.33;;;23.70;64.90;;;;;;5080067;28;21275;-87
2022/07/30 09:51:06;;;;;;;3.20;3.00;;;23.70;65.10;;;;;;5080366;28;20627;-86
2022/07/30 09:53:34;;;;;;;2.90;2.70;;;23.80;65.20;;;;;;5071483;28;20635;-88
2022/07/30 09:56:01;;;;;;;2.47;2.27;;;24.00;62.90;;;;;;5087679;28;21181;-87
2022/07/30 09:58:50;;;;;;;2.63;2.47;;;24.10;63.60;;;;;;5071104;28;20617;-87
2022/07/30 10:01:21;;;;;;;2.13;2.00;;;24.30;61.60;;;;;;5082428;28;21125;-89
2022/07/30 10:03:48;;;;;;;2.33;2.23;;;24.50;64.70;;;;;;5088420;28;20634;-86
2022/07/30 10:06:17;;;;;;;2.90;2.70;;;24.60;60.00;;;;;;5075640;28;20632;-88
2022/07/30 10:08:46;;;;;;;2.10;1.90;;;24.60;57.90;;;;;;5085793;28;20663;-88
2022/07/30 10:11:21;;;;;;;2.00;1.90;;;24.80;63.70;;;;;;5079835;28;21029;-88
2022/07/30 10:13:49;;;;;;;2.70;2.50;;;24.90;61.90;;;;;;5080373;28;20624;-86
2022/07/30 10:16:16;;;;;;;2.50;2.40;;;24.90;59.80;;;;;;5073978;28;21207;-87
2022/07/30 10:18:43;;;;;;;3.57;2.10;;;24.80;62.80;;;;;;5081008;28;20998;-86
2022/07/30 10:21:11;;;;;;;2.03;1.93;;;24.70;64.00;;;;;;5076968;28;20763;-88
2022/07/30 10:23:40;;;;;;;2.60;2.40;;;24.60;61.70;;;;;;5089412;28;20605;-86
2022/07/30 10:26:08;;;;;;;2.40;2.30;;;24.40;61.70;;;;;;5078972;28;20641;-87
2022/07/30 10:28:36;;;;;;;2.40;2.20;;;24.20;59.80;;;;;;5087244;28;20613;-89
2022/07/30 10:31:03;;;;;;;2.87;2.63;;;24.20;61.30;;;;;;5083862;28;21172;-87
2022/07/30 10:33:31;;;;;;;2.43;2.13;;;24.50;61.90;;;;;;5082528;28;20616;-88
2022/07/30 10:35:58;;;;;;;3.03;2.83;;;25.00;59.20;;;;;;5087801;28;20608;-87
2022/07/30 10:38:31;;;;;;;2.27;2.10;;;24.90;59.40;;;;;;5080506;28;20620;-86
2022/07/30 10:41:07;;;;;;;1.93;1.83;;;25.00;60.60;;;;;;5083806;28;20641;-88
2022/07/30 10:43:59;;;;;;;2.47;2.27;;;25.40;59.10;;;;;;5078509;28;20647;-88
2022/07/30 10:46:39;;;;;;;2.00;1.90;;;25.90;58.70;;;;;;5078083;28;20693;-87
2022/07/30 10:49:13;;;;;;;2.37;2.17;;;26.10;57.90;;;;;;5079383;28;20655;-87
2022/07/30 10:51:44;;;;;;;2.00;1.90;;;26.10;56.80;;;;;;5077983;28;20616;-88
2022/07/30 10:54:40;;;;;;;1.90;1.80;;;25.80;58.10;;;;;;5079532;28;20728;-89
2022/07/30 10:57:11;;;;;;;2.17;1.90;;;25.70;58.90;;;;;;5078882;28;20648;-88
2022/07/30 11:00:15;;;;;;;2.20;2.00;;;25.60;56.50;;;;;;5076809;28;20625;-89
2022/07/30 11:03:17;;;;;;;2.10;2.00;;;26.00;61.60;;;;;;5016415;28;20665;-89
2022/07/30 11:05:45;;;;;;;2.10;2.00;;;25.80;58.60;;;;;;5013729;28;21241;-89
2022/07/30 11:08:47;;;;;;;2.13;2.03;;;26.20;57.40;;;;;;5060524;28;20640;-87
2022/07/30 11:11:50;;;;;;;2.20;2.10;;;26.20;55.80;;;;;;5079820;28;20641;-86
2022/07/30 11:14:18;;;;;;;2.03;1.93;;;26.30;56.30;;;;;;5080732;28;20612;-89
2022/07/30 11:17:00;;;;;;;2.50;2.30;;;26.20;56.70;;;;;;5078190;28;21197;-88
2022/07/30 11:19:27;;;;;;;1.83;1.73;;;26.20;56.80;;;;;;5086208;28;20757;-88
2022/07/30 11:22:23;;;;;;;5.83;1.80;;;25.80;54.40;;;;;;5073332;28;20689;-88
2022/07/30 11:24:50;;;;;;;2.23;2.03;;;25.90;58.20;;;;;;5076671;28;20626;-87
2022/07/30 11:27:38;;;;;;;1.73;1.63;;;26.20;57.50;;;;;;5078991;28;20679;-87
2022/07/30 11:30:41;;;;;;;2.17;1.97;;;26.50;54.80;;;;;;5089245;28;20676;-87
2022/07/30 11:33:24;;;;;;;1.73;1.63;;;26.60;54.40;;;;;;5079874;28;20628;-88
2022/07/30 11:36:15;;;;;;;1.97;1.87;;;26.30;54.80;;;;;;5070974;28;20633;-88
2022/07/30 11:39:01;;;;;;;1.73;1.63;;;26.10;55.50;;;;;;5053204;28;20625;-87
2022/07/30 11:41:28;;;;;;;1.40;1.40;;;26.10;55.20;;;;;;5077804;28;21542;-88
2022/07/30 11:44:27;;;;;;;1.80;1.70;;;26.60;55.50;;;;;;5086709;28;20678;-88
2022/07/30 11:46:55;;;;;;;2.17;2.00;;;27.10;53.80;;;;;;5087372;28;20632;-86
2022/07/30 11:49:22;;;;;;;1.80;1.70;;;27.60;53.00;;;;;;5076489;28;20617;-89
2022/07/30 11:51:50;;;;;;;1.80;1.70;;;28.30;52.20;;;;;;5082794;28;20668;-85
2022/07/30 11:54:17;;;;;;;1.90;1.80;;;28.90;51.30;;;;;;5087879;28;20759;-85
2022/07/30 11:56:54;;;;;;;2.10;2.00;;;29.50;51.90;;;;;;5083501;28;20625;-85
2022/07/30 11:59:21;;;;;;;1.40;1.40;;;29.70;50.90;;;;;;5074672;28;20648;-88
2022/07/30 12:01:51;;;;;;;1.90;1.80;;;29.90;50.80;;;;;;5068375;28;20739;-86
2022/07/30 12:04:20;;;;;;;1.73;1.63;;;29.40;50.90;;;;;;5074922;28;20613;-89
2022/07/30 12:06:50;;;;;;;1.90;1.80;;;30.10;52.70;;;;;;5075171;28;20710;-87
2022/07/30 12:09:23;;;;;;;2.00;1.90;;;30.60;49.20;;;;;;5076061;28;20977;-88
2022/07/30 12:11:50;;;;;;;1.97;1.70;;;29.00;46.90;;;;;;5072197;28;21371;-86
2022/07/30 12:14:17;;;;;;;2.30;2.20;;;28.60;51.20;;;;;;5071440;28;20625;-86
2022/07/30 12:16:50;;;;;;;1.80;1.70;;;28.30;52.10;;;;;;5079549;28;21164;-86
2022/07/30 12:19:19;;;;;;;2.00;1.90;;;28.90;51.30;;;;;;5075541;28;20621;-88
2022/07/30 12:21:46;;;;;;;1.70;1.60;;;29.40;48.60;;;;;;5078580;28;20667;-87
2022/07/30 12:24:13;;;;;;;1.57;1.47;;;30.20;49.50;;;;;;5078776;28;20690;-87
2022/07/30 12:26:40;;;;;;;2.43;2.23;;;30.50;47.60;;;;;;5078012;28;20658;-85
2022/07/30 12:29:12;;;;;;;1.97;1.63;;;31.80;48.80;;;;;;5087477;28;20609;-89
2022/07/30 12:31:39;;;;;;;1.30;1.20;;;32.00;47.50;;;;;;5078490;28;20629;-86
2022/07/30 12:34:21;;;;;;;2.03;1.90;;;32.90;45.50;;;;;;5075787;28;20621;-88
2022/07/30 12:36:48;;;;;;;2.00;1.87;;;31.40;45.70;;;;;;5078287;28;20639;-87
2022/07/30 12:39:20;;;;;;;1.90;1.80;;;31.20;48.00;;;;;;5079269;28;20620;-88
2022/07/30 12:41:49;;;;;;;1.30;1.30;;;30.40;46.50;;;;;;5083200;28;21161;-87
2022/07/30 12:44:35;;;;;;;1.73;1.63;;;30.00;45.70;;;;;;5084731;28;21209;-89
2022/07/30 12:47:02;;;;;;;2.00;1.90;;;30.00;47.30;;;;;;5078999;28;20625;-85
2022/07/30 12:49:33;;;;;;;1.77;1.67;;;30.90;46.90;;;;;;5076752;28;20712;-87
2022/07/30 12:52:03;;;;;;;1.80;1.70;;;31.90;46.10;;;;;;5077455;28;20670;-88
2022/07/30 12:54:30;;;;;;;1.80;1.70;;;32.80;43.70;;;;;;5074633;28;20661;-85
2022/07/30 12:56:59;;;;;;;1.57;1.57;;;32.90;42.00;;;;;;5075860;28;20683;-88
2022/07/30 12:59:27;;;;;;;2.57;2.47;;;31.80;44.00;;;;;;5074974;28;20622;-88
2022/07/30 13:01:55;;;;;;;1.90;1.80;;;31.60;45.60;;;;;;5077548;28;20669;-88